Dades de l'estació automàtica Ulldeter (2.413 m)
Resum diari
15:30 TU| Temperatura mitjana | 2.3 °C | |
|---|---|---|
| Temperatura màxima | 3.6 °C | 0:12 TU |
| Temperatura mínima | 1.3 °C | 3:47 TU |
| Humitat relativa mitjana | 93% | |
| Precipitació acumulada | 4.1 mm | |
| Gruix de neu màxim | sense dades | |
| Ratxa màxima del vent (10 m) | 50.8 km/h - 230º | 14:06 TU |
| Irradiació solar global | 4.1 MJ/m2 | |
El tram horari està expressat en Temps Universal (TU). Cal sumar una hora en horari d'hivern i dues en horari d'estiu per passar a l'hora oficial.
Ulldeter (2.413 m)
| Municipi | Setcases |
|---|---|
| Comarca | Ripollès |
| Altitud | 2413 m |
| Data alta | 28.09.2011 |
| Estat actual | Operativa |
| Període TU |
TM °C |
TX °C |
TN °C |
HRM % |
PPT mm |
VVM (10 m) km/h |
DVM (10 m) graus |
VVX (10 m) km/h |
RS W/m2 |
|---|---|---|---|---|---|---|---|---|---|
| 00:00 - 00:30 | 3.4 | 3.6 | 3.2 | 65 | 0.0 | 14.4 | 230 | 23.8 | 0 |
| 00:30 - 01:00 | 3.0 | 3.2 | 2.8 | 50 | 0.0 | 15.8 | 227 | 27.7 | 0 |
| 01:00 - 01:30 | 2.8 | 2.9 | 2.7 | 55 | 0.0 | 21.6 | 222 | 30.2 | 0 |
| 01:30 - 02:00 | 2.7 | 2.9 | 2.6 | 63 | 0.0 | 23.0 | 217 | 32.4 | 0 |
| 02:00 - 02:30 | 2.5 | 2.8 | 2.0 | 69 | 0.0 | 22.3 | 224 | 31.7 | 0 |
| 02:30 - 03:00 | 1.5 | 1.9 | 1.3 | 82 | 0.0 | 16.2 | 236 | 32.4 | 0 |
| 03:00 - 03:30 | 1.7 | 1.9 | 1.3 | 99 | 0.0 | 23.0 | 218 | 34.6 | 0 |
| 03:30 - 04:00 | 1.7 | 2.0 | 1.3 | 100 | 0.1 | 17.3 | 219 | 25.9 | 0 |
| 04:00 - 04:30 | 2.2 | 2.3 | 1.8 | 100 | 0.0 | 23.0 | 221 | 35.6 | 0 |
| 04:30 - 05:00 | 2.1 | 2.3 | 2.0 | 100 | 0.0 | 28.4 | 223 | 38.5 | 2 |
| 05:00 - 05:30 | 2.1 | 2.3 | 2.0 | 100 | 0.0 | 31.3 | 223 | 43.9 | 9 |
| 05:30 - 06:00 | 2.0 | 2.1 | 1.9 | 100 | 0.0 | 28.4 | 223 | 38.9 | 15 |
| 06:00 - 06:30 | 2.2 | 2.2 | 2.1 | 100 | 0.0 | 24.1 | 218 | 36.0 | 39 |
| 06:30 - 07:00 | 2.3 | 2.4 | 2.2 | 100 | 0.0 | 23.0 | 219 | 36.0 | 92 |
| 07:00 - 07:30 | 2.4 | 2.5 | 2.3 | 100 | 0.0 | 21.6 | 215 | 32.0 | 83 |
| 07:30 - 08:00 | 2.3 | 2.5 | 2.1 | 100 | 0.3 | 21.6 | 221 | 34.6 | 95 |
| 08:00 - 08:30 | 2.6 | 2.7 | 2.4 | 100 | 0.2 | 16.6 | 223 | 36.4 | 105 |
| 08:30 - 09:00 | 2.6 | 2.7 | 2.4 | 100 | 0.4 | 13.3 | 219 | 37.4 | 86 |
| 09:00 - 09:30 | 2.4 | 2.5 | 2.2 | 100 | 0.6 | 18.4 | 220 | 33.1 | 130 |
| 09:30 - 10:00 | 2.3 | 2.4 | 2.2 | 100 | 0.5 | 19.4 | 221 | 34.6 | 129 |
| 10:00 - 10:30 | 2.3 | 2.3 | 2.2 | 100 | 0.2 | 18.7 | 213 | 35.6 | 122 |
| 10:30 - 11:00 | 2.4 | 2.5 | 2.3 | 100 | 0.4 | 17.6 | 216 | 35.3 | 131 |
| 11:00 - 11:30 | 2.4 | 2.5 | 2.4 | 100 | 0.4 | 18.7 | 220 | 38.2 | 143 |
| 11:30 - 12:00 | 2.4 | 2.6 | 2.3 | 100 | 0.2 | 21.2 | 221 | 36.0 | 201 |
| 12:00 - 12:30 | 2.4 | 2.6 | 2.2 | 100 | 0.2 | 20.5 | 216 | 40.7 | 164 |
| 12:30 - 13:00 | 2.2 | 2.4 | 2.1 | 100 | 0.1 | 22.7 | 219 | 35.3 | 205 |
| 13:00 - 13:30 | 2.2 | 2.4 | 1.9 | 100 | 0.1 | 17.6 | 205 | 32.8 | 137 |
| 13:30 - 14:00 | 2.1 | 2.4 | 1.9 | 100 | 0.2 | 20.5 | 213 | 37.4 | 98 |
| 14:00 - 14:30 | 2.1 | 2.4 | 1.8 | 100 | 0.1 | 20.5 | 206 | 50.8 | 82 |
| 14:30 - 15:00 | 1.8 | 1.9 | 1.7 | 100 | 0.0 | 22.0 | 212 | 38.2 | 81 |
| 15:00 - 15:30 | 1.9 | 2.1 | 1.8 | 100 | 0.1 | 20.5 | 210 | 40.3 | 82 |
| 15:30 - 16:00 | 2.4 | 2.5 | 2.1 | 100 | 0.0 | 20.9 | 219 | 33.5 | 68 |
| 16:00 - 16:30 | (s/d) | (s/d) | (s/d) | (s/d) | (s/d) | (s/d) | (s/d) | (s/d) | (s/d) |
Les dades en taronja només han passat un control de qualitat automàtic. Resta pendent la seva validació definitiva.